createdAt,value
2022-09-21T00:00:55.194Z,1.40
2022-09-21T00:03:52.634Z,1.70
2022-09-21T00:06:50.307Z,1.40
2022-09-21T00:09:47.744Z,1.60
2022-09-21T00:12:45.448Z,1.60
2022-09-21T00:15:42.873Z,1.50
2022-09-21T00:18:40.308Z,1.60
2022-09-21T00:21:38.340Z,1.60
2022-09-21T00:24:36.059Z,1.40
2022-09-21T00:27:33.511Z,1.40
2022-09-21T00:30:30.954Z,1.50
2022-09-21T00:33:28.377Z,1.30
2022-09-21T00:36:25.799Z,1.40
2022-09-21T00:39:23.225Z,1.40
2022-09-21T00:42:20.632Z,1.60
2022-09-21T00:45:22.263Z,1.50
2022-09-21T00:48:19.681Z,1.40
2022-09-21T00:51:17.221Z,1.40
2022-09-21T00:54:15.345Z,1.60
2022-09-21T00:57:12.782Z,1.60
2022-09-21T01:00:10.227Z,1.30
2022-09-21T01:03:07.649Z,1.60
2022-09-21T01:06:05.059Z,1.50
2022-09-21T01:09:02.514Z,1.20
2022-09-21T01:12:00.369Z,1.60
2022-09-21T01:14:57.796Z,1.60
2022-09-21T01:17:55.228Z,1.30
2022-09-21T01:20:52.679Z,1.70
2022-09-21T01:23:50.164Z,1.50
2022-09-21T01:26:47.553Z,1.40
2022-09-21T01:29:44.993Z,1.50
2022-09-21T01:32:42.394Z,1.40
2022-09-21T01:35:39.814Z,1.60
2022-09-21T01:38:37.370Z,1.50
2022-09-21T01:41:35.440Z,1.60
2022-09-21T01:44:33.532Z,1.70
2022-09-21T01:47:31.972Z,1.90
2022-09-21T01:50:29.392Z,1.50
2022-09-21T01:53:26.813Z,1.70
2022-09-21T01:56:24.259Z,1.70
2022-09-21T01:59:21.825Z,1.60
2022-09-21T02:02:19.343Z,1.50
2022-09-21T02:05:17.440Z,1.80
2022-09-21T02:08:14.853Z,1.40
2022-09-21T02:11:12.835Z,1.60
2022-09-21T02:14:10.322Z,1.70
2022-09-21T02:17:07.967Z,1.60
2022-09-21T02:20:05.389Z,1.90
2022-09-21T02:23:03.490Z,1.60
2022-09-21T02:26:00.897Z,1.70
2022-09-21T02:29:01.469Z,1.70
2022-09-21T02:31:58.890Z,1.50
2022-09-21T02:34:56.789Z,1.60
2022-09-21T02:37:56.236Z,1.50
2022-09-21T02:40:54.224Z,1.40
2022-09-21T02:43:51.951Z,1.80
2022-09-21T02:46:49.669Z,1.60
2022-09-21T02:49:47.119Z,1.50
2022-09-21T02:52:44.560Z,1.90
2022-09-21T02:55:41.974Z,1.80
2022-09-21T02:58:39.397Z,1.80
2022-09-21T03:01:36.842Z,1.60
2022-09-21T03:04:34.293Z,1.50
2022-09-21T03:07:32.443Z,1.70
2022-09-21T03:10:29.856Z,1.60
2022-09-21T03:13:27.306Z,1.60
2022-09-21T03:16:27.950Z,1.80
2022-09-21T03:19:25.657Z,1.50
2022-09-21T03:22:23.120Z,1.80
2022-09-21T03:25:20.537Z,1.50
2022-09-21T03:28:17.968Z,1.90
2022-09-21T03:31:15.566Z,1.60
2022-09-21T03:34:13.651Z,1.90
2022-09-21T03:37:11.049Z,1.70
2022-09-21T03:40:08.519Z,1.80
2022-09-21T03:43:06.008Z,1.80
2022-09-21T03:46:03.476Z,2.10
2022-09-21T03:49:01.265Z,1.90
2022-09-21T03:51:59.750Z,2.00
2022-09-21T03:54:57.179Z,1.90
2022-09-21T03:57:54.609Z,1.90
2022-09-21T04:00:52.948Z,2.10
2022-09-21T04:03:50.373Z,2.50
2022-09-21T04:06:47.800Z,2.20
2022-09-21T04:09:45.230Z,2.40
2022-09-21T04:12:43.907Z,2.20
2022-09-21T04:15:41.398Z,2.00
2022-09-21T04:18:39.057Z,2.20
2022-09-21T04:21:36.443Z,2.30
2022-09-21T04:24:33.865Z,2.20
2022-09-21T04:27:31.320Z,2.60
2022-09-21T04:30:30.576Z,2.70
2022-09-21T04:33:29.661Z,2.60
2022-09-21T04:36:27.070Z,2.60
2022-09-21T04:39:25.199Z,3.00
2022-09-21T04:42:23.410Z,2.70
2022-09-21T04:45:20.830Z,3.10
2022-09-21T04:48:18.293Z,3.10
2022-09-21T04:51:15.870Z,3.40
2022-09-21T04:54:13.774Z,3.00
2022-09-21T04:57:11.179Z,3.10
2022-09-21T05:00:08.616Z,3.20
2022-09-21T05:03:06.040Z,3.10
2022-09-21T05:06:04.019Z,3.10
2022-09-21T05:09:19.512Z,3.30
2022-09-21T05:12:16.905Z,3.00
2022-09-21T05:15:14.507Z,2.80
2022-09-21T05:18:11.928Z,3.00
2022-09-21T05:21:09.349Z,2.90
2022-09-21T05:24:06.758Z,3.20
2022-09-21T05:27:04.197Z,2.80
2022-09-21T05:30:01.631Z,3.30
2022-09-21T05:32:59.056Z,2.90
2022-09-21T05:35:56.491Z,3.30
2022-09-21T05:38:53.890Z,2.80
2022-09-21T05:41:51.328Z,2.90
2022-09-21T05:44:50.742Z,2.80
2022-09-21T05:47:48.153Z,2.70
2022-09-21T05:50:45.661Z,3.10
2022-09-21T05:53:43.063Z,3.20
2022-09-21T05:56:40.523Z,3.00
2022-09-21T05:59:37.980Z,2.90
2022-09-21T06:02:35.441Z,2.90
2022-09-21T06:05:33.163Z,3.20
2022-09-21T06:08:30.594Z,2.80
2022-09-21T06:11:28.018Z,2.60
2022-09-21T06:14:25.737Z,2.50
2022-09-21T06:17:23.189Z,2.30
2022-09-21T06:20:21.677Z,2.20
2022-09-21T06:23:19.117Z,2.30
2022-09-21T06:26:17.827Z,2.60
2022-09-21T06:29:15.249Z,2.40
2022-09-21T06:32:12.670Z,2.80
2022-09-21T06:35:10.100Z,2.20
2022-09-21T06:38:07.552Z,2.60
2022-09-21T06:41:04.995Z,2.70
2022-09-21T06:44:02.410Z,2.50
2022-09-21T06:46:59.861Z,2.30
2022-09-21T06:49:57.410Z,2.50
2022-09-21T06:52:54.824Z,2.20
2022-09-21T06:55:52.308Z,2.50
2022-09-21T06:58:49.721Z,2.20
2022-09-21T07:01:47.245Z,2.70
2022-09-21T07:04:44.742Z,2.40
2022-09-21T07:07:42.204Z,2.50
2022-09-21T07:10:39.632Z,2.80
2022-09-21T07:13:37.061Z,2.90
2022-09-21T07:16:35.115Z,2.20
2022-09-21T07:19:32.915Z,2.30
2022-09-21T07:22:30.389Z,2.30
2022-09-21T07:25:27.795Z,2.10
2022-09-21T07:28:25.261Z,2.20
2022-09-21T07:31:23.077Z,1.90
2022-09-21T07:34:20.526Z,2.20
2022-09-21T07:37:17.952Z,1.80
2022-09-21T07:40:15.561Z,2.00
2022-09-21T07:43:13.019Z,2.40
2022-09-21T07:46:10.541Z,2.30
2022-09-21T07:49:08.037Z,2.10
2022-09-21T07:52:09.405Z,2.20
2022-09-21T07:55:08.340Z,2.80
2022-09-21T07:58:23.704Z,2.70
2022-09-21T08:01:21.223Z,2.70
2022-09-21T08:04:18.814Z,2.90
2022-09-21T08:07:16.255Z,2.50
2022-09-21T08:10:13.678Z,2.30
2022-09-21T08:13:11.101Z,2.60
2022-09-21T08:16:08.568Z,2.60
2022-09-21T08:19:06.053Z,2.70
2022-09-21T08:22:03.465Z,2.40
2022-09-21T08:25:00.890Z,2.60
2022-09-21T08:27:58.328Z,2.50
2022-09-21T08:30:55.770Z,2.30
2022-09-21T08:33:53.254Z,2.40
2022-09-21T08:36:55.055Z,2.40
2022-09-21T08:39:53.137Z,2.40
2022-09-21T08:42:51.033Z,2.20
2022-09-21T08:45:48.564Z,2.10
2022-09-21T08:48:47.354Z,1.70
2022-09-21T08:51:44.853Z,1.70
2022-09-21T08:54:42.415Z,1.50
2022-09-21T08:57:39.837Z,1.50
2022-09-21T09:00:37.823Z,1.50
2022-09-21T09:03:36.489Z,1.40
2022-09-21T09:06:35.474Z,1.60
2022-09-21T09:09:32.944Z,1.30
2022-09-21T09:12:30.411Z,1.30
2022-09-21T09:15:27.881Z,1.30
2022-09-21T09:18:26.890Z,1.30
2022-09-21T09:21:30.908Z,1.30
2022-09-21T09:24:29.367Z,1.30
2022-09-21T09:27:26.822Z,1.20
2022-09-21T09:30:25.544Z,1.20
2022-09-21T09:33:22.978Z,1.40
2022-09-21T09:36:34.846Z,1.60
2022-09-21T09:39:41.481Z,1.10
2022-09-21T09:42:38.933Z,1.20
2022-09-21T09:45:37.106Z,1.10
2022-09-21T09:48:34.593Z,1.30
2022-09-21T09:51:35.328Z,1.30
2022-09-21T09:54:32.748Z,1.40
2022-09-21T09:57:30.216Z,1.40
2022-09-21T10:00:27.626Z,1.10
2022-09-21T10:03:25.041Z,1.20
2022-09-21T10:06:22.484Z,1.10
2022-09-21T10:09:19.937Z,1.00
2022-09-21T10:12:17.390Z,1.30
2022-09-21T10:15:14.801Z,1.20
2022-09-21T10:18:12.239Z,1.20
2022-09-21T10:21:09.702Z,1.30
2022-09-21T10:24:07.160Z,1.10
2022-09-21T10:27:04.643Z,1.20
2022-09-21T10:30:02.085Z,1.10
2022-09-21T10:32:59.556Z,0.90
2022-09-21T10:35:57.079Z,1.00
2022-09-21T10:38:54.599Z,0.90
2022-09-21T10:41:52.021Z,1.00
2022-09-21T10:44:49.456Z,0.90
2022-09-21T10:47:46.903Z,1.00
2022-09-21T10:50:44.446Z,0.90
2022-09-21T10:53:41.880Z,1.10
2022-09-21T10:56:39.301Z,1.10
2022-09-21T10:59:37.277Z,1.30
2022-09-21T11:02:34.759Z,1.30
2022-09-21T11:05:32.286Z,1.10
2022-09-21T11:08:29.701Z,1.30
2022-09-21T11:11:27.137Z,1.40
2022-09-21T11:14:26.050Z,1.40
2022-09-21T11:17:23.472Z,1.20
2022-09-21T11:20:20.912Z,1.20
2022-09-21T11:23:19.587Z,1.40
2022-09-21T11:26:17.783Z,1.40
2022-09-21T11:29:15.332Z,1.60
2022-09-21T11:32:12.827Z,1.40
2022-09-21T11:35:10.271Z,1.30
2022-09-21T11:38:07.711Z,1.10
2022-09-21T11:41:06.318Z,1.00
2022-09-21T11:44:04.188Z,0.90
2022-09-21T11:47:02.003Z,1.00
2022-09-21T11:50:19.448Z,1.00
2022-09-21T11:53:17.229Z,1.00
2022-09-21T11:56:14.673Z,1.10
2022-09-21T11:59:12.132Z,1.10
2022-09-21T12:02:09.655Z,1.10
2022-09-21T12:05:07.312Z,0.90
2022-09-21T12:08:04.914Z,1.00
2022-09-21T12:11:02.705Z,0.90
2022-09-21T12:14:00.158Z,0.90
2022-09-21T12:16:57.636Z,0.90
2022-09-21T12:19:55.987Z,0.80
2022-09-21T12:22:53.489Z,0.80
2022-09-21T12:25:52.155Z,1.00
2022-09-21T12:28:49.574Z,1.00
2022-09-21T12:31:47.002Z,1.00
2022-09-21T12:34:44.421Z,1.00
2022-09-21T12:37:41.882Z,1.10
2022-09-21T12:40:39.448Z,0.90
2022-09-21T12:43:37.078Z,1.10
2022-09-21T12:46:34.523Z,0.90
2022-09-21T12:49:31.957Z,1.00
2022-09-21T12:52:29.399Z,1.10
2022-09-21T12:55:29.039Z,1.20
2022-09-21T12:58:26.492Z,1.00
2022-09-21T13:01:26.443Z,1.10
2022-09-21T13:04:24.099Z,1.10
2022-09-21T13:07:21.542Z,1.10
2022-09-21T13:10:18.980Z,1.20
2022-09-21T13:13:17.651Z,0.90
2022-09-21T13:16:15.140Z,1.00
2022-09-21T13:19:12.565Z,1.10
2022-09-21T13:22:11.724Z,1.00
2022-09-21T13:25:09.599Z,1.00
2022-09-21T13:28:09.465Z,0.80
2022-09-21T13:31:18.561Z,1.00
2022-09-21T13:34:24.466Z,1.10
2022-09-21T13:37:22.290Z,1.20
2022-09-21T13:40:19.854Z,1.20
2022-09-21T13:43:17.311Z,1.00
2022-09-21T13:46:14.822Z,1.10
2022-09-21T13:49:12.649Z,1.00
2022-09-21T13:52:10.950Z,1.10
2022-09-21T13:55:09.630Z,1.10
2022-09-21T13:58:07.273Z,1.10
2022-09-21T14:01:04.763Z,1.20
2022-09-21T14:04:02.270Z,1.00
2022-09-21T14:06:59.722Z,1.20
2022-09-21T14:09:57.154Z,1.00
2022-09-21T14:12:54.586Z,1.40
2022-09-21T14:15:52.033Z,1.20
2022-09-21T14:18:49.803Z,1.10
2022-09-21T14:21:47.245Z,1.40
2022-09-21T14:24:45.123Z,1.20
2022-09-21T14:27:45.676Z,1.50
2022-09-21T14:30:43.700Z,1.20
2022-09-21T14:33:42.232Z,1.10
2022-09-21T14:36:41.693Z,1.10
2022-09-21T14:39:39.341Z,1.10
2022-09-21T14:42:37.168Z,1.20
2022-09-21T14:45:34.594Z,1.00
2022-09-21T14:48:32.035Z,1.10
2022-09-21T14:51:29.466Z,1.00
2022-09-21T14:54:27.278Z,0.90
2022-09-21T14:57:24.783Z,1.00
2022-09-21T15:00:23.507Z,1.00
2022-09-21T15:03:22.487Z,0.90
2022-09-21T15:06:37.780Z,1.10
2022-09-21T15:09:49.091Z,0.90
2022-09-21T15:12:46.866Z,0.90
2022-09-21T15:15:44.295Z,1.20
2022-09-21T15:18:41.809Z,1.10
2022-09-21T15:21:39.260Z,1.20
2022-09-21T15:24:36.715Z,1.00
2022-09-21T15:27:34.191Z,1.10
2022-09-21T15:30:33.745Z,1.10
2022-09-21T15:33:33.371Z,1.10
2022-09-21T15:36:31.269Z,1.30
2022-09-21T15:39:28.728Z,1.10
2022-09-21T15:42:26.543Z,1.30
2022-09-21T15:45:24.602Z,1.30
2022-09-21T15:48:22.032Z,1.20
2022-09-21T15:51:22.733Z,1.20
2022-09-21T15:54:21.433Z,1.30
2022-09-21T15:57:18.883Z,1.20
2022-09-21T16:00:16.412Z,1.40
2022-09-21T16:03:13.868Z,1.30
2022-09-21T16:06:12.508Z,1.50
2022-09-21T16:09:09.956Z,1.50
2022-09-21T16:12:07.386Z,1.00
2022-09-21T16:15:04.793Z,1.30
2022-09-21T16:18:03.050Z,1.20
2022-09-21T16:21:00.521Z,1.20
2022-09-21T16:23:58.073Z,1.20
2022-09-21T16:26:55.587Z,1.10
2022-09-21T16:29:53.011Z,1.40
2022-09-21T16:32:50.487Z,1.10
2022-09-21T16:35:47.904Z,1.40
2022-09-21T16:38:47.221Z,1.30
2022-09-21T16:41:44.941Z,1.50
2022-09-21T16:44:45.193Z,1.20
2022-09-21T16:47:42.639Z,1.10
2022-09-21T16:50:43.388Z,1.10
2022-09-21T16:53:40.876Z,1.90
2022-09-21T16:56:38.305Z,2.10
2022-09-21T16:59:36.700Z,1.40
2022-09-21T17:02:34.120Z,1.20
2022-09-21T17:05:31.567Z,1.20
2022-09-21T17:08:30.305Z,1.10
2022-09-21T17:11:28.185Z,1.20
2022-09-21T17:14:25.593Z,1.30
2022-09-21T17:17:23.049Z,1.40
2022-09-21T17:20:20.500Z,1.20
2022-09-21T17:23:18.832Z,1.20
2022-09-21T17:26:17.748Z,1.40
2022-09-21T17:29:15.260Z,1.50
2022-09-21T17:32:14.362Z,1.30
2022-09-21T17:35:12.468Z,1.00
2022-09-21T17:38:14.116Z,1.30
2022-09-21T17:41:12.135Z,1.20
2022-09-21T17:44:09.621Z,1.00
2022-09-21T17:47:07.035Z,1.30
2022-09-21T17:50:04.498Z,1.00
2022-09-21T17:53:20.129Z,1.00
2022-09-21T17:56:17.549Z,1.00
2022-09-21T17:59:15.010Z,1.10
2022-09-21T18:02:12.480Z,1.40
2022-09-21T18:05:10.185Z,1.20
2022-09-21T18:08:07.621Z,1.10
2022-09-21T18:11:05.102Z,1.20
2022-09-21T18:14:04.939Z,1.20
2022-09-21T18:17:02.474Z,1.10
2022-09-21T18:20:00.001Z,1.00
2022-09-21T18:22:58.518Z,1.10
2022-09-21T18:25:57.316Z,1.00
2022-09-21T18:28:58.623Z,1.10
2022-09-21T18:31:56.124Z,1.10
2022-09-21T18:34:54.834Z,1.10
2022-09-21T18:37:52.568Z,1.00
2022-09-21T18:40:50.057Z,1.20
2022-09-21T18:43:47.782Z,1.50
2022-09-21T18:46:47.475Z,1.10
2022-09-21T18:49:45.003Z,1.10
2022-09-21T18:52:42.525Z,1.20
2022-09-21T18:55:40.006Z,1.10
2022-09-21T18:58:37.433Z,1.10
2022-09-21T19:01:35.030Z,1.10
2022-09-21T19:04:32.894Z,1.10
2022-09-21T19:07:30.625Z,1.10
2022-09-21T19:10:28.069Z,1.20
2022-09-21T19:13:25.842Z,1.20
2022-09-21T19:16:23.399Z,1.50
2022-09-21T19:19:20.969Z,1.40
2022-09-21T19:22:18.442Z,1.10
2022-09-21T19:25:16.115Z,1.20
2022-09-21T19:28:13.708Z,1.10
2022-09-21T19:31:11.268Z,1.00
2022-09-21T19:34:08.773Z,1.10
2022-09-21T19:37:07.967Z,1.50
2022-09-21T19:40:05.675Z,1.20
2022-09-21T19:43:03.133Z,1.30
2022-09-21T19:46:05.137Z,1.40
2022-09-21T19:49:03.835Z,1.10
2022-09-21T19:52:01.244Z,1.40
2022-09-21T19:55:16.340Z,1.60
2022-09-21T19:58:33.526Z,1.30
2022-09-21T20:01:31.321Z,1.40
2022-09-21T20:04:28.820Z,1.20
2022-09-21T20:07:26.228Z,1.40
2022-09-21T20:10:25.417Z,1.40
2022-09-21T20:13:22.899Z,1.40
2022-09-21T20:16:20.414Z,1.40
2022-09-21T20:19:18.293Z,1.40
2022-09-21T20:22:15.723Z,1.40
2022-09-21T20:25:13.234Z,1.40
2022-09-21T20:28:11.702Z,1.30
2022-09-21T20:31:09.159Z,1.60
2022-09-21T20:34:06.609Z,1.60
2022-09-21T20:37:04.068Z,1.50
2022-09-21T20:40:01.628Z,1.40
2022-09-21T20:43:01.247Z,1.80
2022-09-21T20:45:59.501Z,1.60
2022-09-21T20:49:04.789Z,1.40
2022-09-21T20:52:05.215Z,1.80
2022-09-21T20:55:02.626Z,1.70
2022-09-21T20:58:00.288Z,1.40
2022-09-21T21:00:59.160Z,1.50
2022-09-21T21:04:02.126Z,1.80
2022-09-21T21:06:59.671Z,1.70
2022-09-21T21:09:57.243Z,1.40
2022-09-21T21:12:55.129Z,1.40
2022-09-21T21:15:52.592Z,1.40
2022-09-21T21:18:50.233Z,1.50
2022-09-21T21:21:47.671Z,1.60
2022-09-21T21:24:45.143Z,1.50
2022-09-21T21:27:42.597Z,1.60
2022-09-21T21:30:40.356Z,1.60
2022-09-21T21:33:37.766Z,1.50
2022-09-21T21:36:35.209Z,1.50
2022-09-21T21:39:32.631Z,1.90
2022-09-21T21:42:30.080Z,1.80
2022-09-21T21:45:27.531Z,1.60
2022-09-21T21:48:25.524Z,1.60
2022-09-21T21:51:22.948Z,1.40
2022-09-21T21:54:20.383Z,1.50
2022-09-21T21:57:17.827Z,1.90
2022-09-21T22:00:15.249Z,1.60
2022-09-21T22:03:12.687Z,1.80
2022-09-21T22:06:10.102Z,1.70
2022-09-21T22:09:07.539Z,1.70
2022-09-21T22:12:05.097Z,1.80
2022-09-21T22:15:02.917Z,1.80
2022-09-21T22:18:00.503Z,1.60
2022-09-21T22:20:58.039Z,1.60
2022-09-21T22:23:55.472Z,1.40
2022-09-21T22:26:52.898Z,1.60
2022-09-21T22:29:50.328Z,1.50
2022-09-21T22:32:47.765Z,1.50
2022-09-21T22:35:45.210Z,1.60
2022-09-21T22:38:43.183Z,2.00
2022-09-21T22:41:40.767Z,1.80
2022-09-21T22:44:45.923Z,1.60
2022-09-21T22:47:43.378Z,1.70
2022-09-21T22:50:40.801Z,1.90
2022-09-21T22:53:38.249Z,1.70
2022-09-21T22:56:35.715Z,1.50
2022-09-21T22:59:33.146Z,1.70
2022-09-21T23:02:30.606Z,1.60
2022-09-21T23:05:28.034Z,1.80
2022-09-21T23:08:25.460Z,1.60
2022-09-21T23:11:22.938Z,1.60
2022-09-21T23:14:20.649Z,1.80
2022-09-21T23:17:18.104Z,2.10
2022-09-21T23:20:17.388Z,1.70
2022-09-21T23:23:14.827Z,1.70
2022-09-21T23:26:12.297Z,1.80
2022-09-21T23:29:10.019Z,1.80
2022-09-21T23:32:07.601Z,1.70
2022-09-21T23:35:05.040Z,1.70
2022-09-21T23:38:02.524Z,1.70
2022-09-21T23:41:00.755Z,1.70
2022-09-21T23:43:58.200Z,1.60
2022-09-21T23:46:55.688Z,1.60
2022-09-21T23:49:53.165Z,1.90
2022-09-21T23:52:50.583Z,1.50
2022-09-21T23:55:47.999Z,1.90
2022-09-21T23:58:45.442Z,1.70
